sensor_id;sensor_type;location;lat;lon;timestamp;temperature;humidity
5200;DHT22;2619;47.868;11.892;2023-11-19T00:01:47;4.30;99.90
5200;DHT22;2619;47.868;11.892;2023-11-19T00:04:13;4.30;99.90
5200;DHT22;2619;47.868;11.892;2023-11-19T00:06:39;4.30;99.90
5200;DHT22;2619;47.868;11.892;2023-11-19T00:09:04;4.40;99.90
5200;DHT22;2619;47.868;11.892;2023-11-19T00:11:30;4.40;99.90
5200;DHT22;2619;47.868;11.892;2023-11-19T00:13:55;4.40;99.90
5200;DHT22;2619;47.868;11.892;2023-11-19T00:16:21;4.40;99.90
5200;DHT22;2619;47.868;11.892;2023-11-19T00:18:46;4.30;99.90
5200;DHT22;2619;47.868;11.892;2023-11-19T00:21:12;4.30;99.90
5200;DHT22;2619;47.868;11.892;2023-11-19T00:23:38;4.30;99.90
5200;DHT22;2619;47.868;11.892;2023-11-19T00:26:04;4.30;99.90
5200;DHT22;2619;47.868;11.892;2023-11-19T00:28:32;4.30;99.90
5200;DHT22;2619;47.868;11.892;2023-11-19T00:30:58;4.30;99.90
5200;DHT22;2619;47.868;11.892;2023-11-19T00:33:24;4.40;99.90
5200;DHT22;2619;47.868;11.892;2023-11-19T00:35:49;4.30;99.90
5200;DHT22;2619;47.868;11.892;2023-11-19T00:38:15;4.30;99.90
5200;DHT22;2619;47.868;11.892;2023-11-19T00:40:41;4.40;99.90
5200;DHT22;2619;47.868;11.892;2023-11-19T00:43:07;4.50;99.90
5200;DHT22;2619;47.868;11.892;2023-11-19T00:45:33;4.40;99.90
5200;DHT22;2619;47.868;11.892;2023-11-19T00:47:58;4.40;99.90
5200;DHT22;2619;47.868;11.892;2023-11-19T00:50:27;4.40;99.90
5200;DHT22;2619;47.868;11.892;2023-11-19T00:52:52;4.40;99.90
5200;DHT22;2619;47.868;11.892;2023-11-19T00:55:18;4.40;99.90
5200;DHT22;2619;47.868;11.892;2023-11-19T00:57:43;4.50;99.90
5200;DHT22;2619;47.868;11.892;2023-11-19T01:00:09;4.50;99.90
5200;DHT22;2619;47.868;11.892;2023-11-19T01:02:47;4.60;99.90
5200;DHT22;2619;47.868;11.892;2023-11-19T01:05:15;4.70;99.90
5200;DHT22;2619;47.868;11.892;2023-11-19T01:07:40;4.70;99.90
5200;DHT22;2619;47.868;11.892;2023-11-19T01:10:06;4.70;99.90
5200;DHT22;2619;47.868;11.892;2023-11-19T01:12:34;4.70;99.90
5200;DHT22;2619;47.868;11.892;2023-11-19T01:14:59;4.70;99.90
5200;DHT22;2619;47.868;11.892;2023-11-19T01:17:26;4.60;99.90
5200;DHT22;2619;47.868;11.892;2023-11-19T01:19:52;4.60;99.90
5200;DHT22;2619;47.868;11.892;2023-11-19T01:22:17;4.60;99.90
5200;DHT22;2619;47.868;11.892;2023-11-19T01:24:44;4.70;99.90
5200;DHT22;2619;47.868;11.892;2023-11-19T01:27:09;4.70;99.90
5200;DHT22;2619;47.868;11.892;2023-11-19T01:29:35;4.70;99.90
5200;DHT22;2619;47.868;11.892;2023-11-19T01:32:00;4.70;99.90
5200;DHT22;2619;47.868;11.892;2023-11-19T01:34:26;4.70;99.90
5200;DHT22;2619;47.868;11.892;2023-11-19T01:36:52;4.80;99.90
5200;DHT22;2619;47.868;11.892;2023-11-19T01:39:17;4.80;99.90
5200;DHT22;2619;47.868;11.892;2023-11-19T01:41:43;4.70;99.90
5200;DHT22;2619;47.868;11.892;2023-11-19T01:44:09;4.60;99.90
5200;DHT22;2619;47.868;11.892;2023-11-19T01:46:35;4.60;99.90
5200;DHT22;2619;47.868;11.892;2023-11-19T01:49:02;4.60;99.90
5200;DHT22;2619;47.868;11.892;2023-11-19T01:51:28;4.60;99.90
5200;DHT22;2619;47.868;11.892;2023-11-19T01:53:55;4.60;99.90
5200;DHT22;2619;47.868;11.892;2023-11-19T01:56:22;4.60;99.90
5200;DHT22;2619;47.868;11.892;2023-11-19T01:58:48;4.60;99.90
5200;DHT22;2619;47.868;11.892;2023-11-19T02:01:15;4.50;99.90
5200;DHT22;2619;47.868;11.892;2023-11-19T02:03:41;4.50;99.90
5200;DHT22;2619;47.868;11.892;2023-11-19T02:06:07;4.60;99.90
5200;DHT22;2619;47.868;11.892;2023-11-19T02:08:35;4.60;99.90
5200;DHT22;2619;47.868;11.892;2023-11-19T02:11:01;4.60;99.90
5200;DHT22;2619;47.868;11.892;2023-11-19T02:13:27;4.60;99.90
5200;DHT22;2619;47.868;11.892;2023-11-19T02:15:54;4.60;99.90
5200;DHT22;2619;47.868;11.892;2023-11-19T02:18:25;4.70;99.90
5200;DHT22;2619;47.868;11.892;2023-11-19T02:20:59;4.60;99.90
5200;DHT22;2619;47.868;11.892;2023-11-19T02:23:28;4.70;99.90
5200;DHT22;2619;47.868;11.892;2023-11-19T02:26:14;4.70;99.90
5200;DHT22;2619;47.868;11.892;2023-11-19T02:28:43;4.70;99.90
5200;DHT22;2619;47.868;11.892;2023-11-19T02:31:09;4.70;99.90
5200;DHT22;2619;47.868;11.892;2023-11-19T02:33:38;4.60;99.90
5200;DHT22;2619;47.868;11.892;2023-11-19T02:36:08;4.70;99.90
5200;DHT22;2619;47.868;11.892;2023-11-19T02:38:34;4.70;99.90
5200;DHT22;2619;47.868;11.892;2023-11-19T02:41:03;4.70;99.90
5200;DHT22;2619;47.868;11.892;2023-11-19T02:43:31;4.70;99.90
5200;DHT22;2619;47.868;11.892;2023-11-19T02:46:01;4.70;99.90
5200;DHT22;2619;47.868;11.892;2023-11-19T02:48:27;4.70;99.90
5200;DHT22;2619;47.868;11.892;2023-11-19T02:50:53;4.70;99.90
5200;DHT22;2619;47.868;11.892;2023-11-19T02:53:18;4.70;99.90
5200;DHT22;2619;47.868;11.892;2023-11-19T02:55:47;4.70;99.90
5200;DHT22;2619;47.868;11.892;2023-11-19T02:58:15;4.70;99.90
5200;DHT22;2619;47.868;11.892;2023-11-19T03:00:49;4.80;99.90
5200;DHT22;2619;47.868;11.892;2023-11-19T03:03:23;4.70;99.90
5200;DHT22;2619;47.868;11.892;2023-11-19T03:05:54;4.80;99.90
5200;DHT22;2619;47.868;11.892;2023-11-19T03:08:20;4.80;99.90
5200;DHT22;2619;47.868;11.892;2023-11-19T03:10:46;4.80;99.90
5200;DHT22;2619;47.868;11.892;2023-11-19T03:13:13;4.80;99.90
5200;DHT22;2619;47.868;11.892;2023-11-19T03:15:44;4.80;99.90
5200;DHT22;2619;47.868;11.892;2023-11-19T03:18:11;4.90;99.90
5200;DHT22;2619;47.868;11.892;2023-11-19T03:20:36;4.80;99.90
5200;DHT22;2619;47.868;11.892;2023-11-19T03:23:02;4.90;99.90
5200;DHT22;2619;47.868;11.892;2023-11-19T03:25:28;4.90;99.90
5200;DHT22;2619;47.868;11.892;2023-11-19T03:27:59;4.90;99.90
5200;DHT22;2619;47.868;11.892;2023-11-19T03:30:24;4.90;99.90
5200;DHT22;2619;47.868;11.892;2023-11-19T03:32:50;4.90;99.90
5200;DHT22;2619;47.868;11.892;2023-11-19T03:35:16;4.90;99.90
5200;DHT22;2619;47.868;11.892;2023-11-19T03:37:41;4.90;99.90
5200;DHT22;2619;47.868;11.892;2023-11-19T03:40:09;4.90;99.90
5200;DHT22;2619;47.868;11.892;2023-11-19T03:42:35;4.90;99.90
5200;DHT22;2619;47.868;11.892;2023-11-19T03:45:01;5.00;99.90
5200;DHT22;2619;47.868;11.892;2023-11-19T03:47:29;5.00;99.90
5200;DHT22;2619;47.868;11.892;2023-11-19T03:49:54;5.00;99.90
5200;DHT22;2619;47.868;11.892;2023-11-19T03:52:20;5.00;99.90
5200;DHT22;2619;47.868;11.892;2023-11-19T03:54:45;5.00;99.90
5200;DHT22;2619;47.868;11.892;2023-11-19T03:57:14;5.00;99.90
5200;DHT22;2619;47.868;11.892;2023-11-19T03:59:41;5.00;99.90
5200;DHT22;2619;47.868;11.892;2023-11-19T04:02:06;5.00;99.90
5200;DHT22;2619;47.868;11.892;2023-11-19T04:04:32;5.00;99.90
5200;DHT22;2619;47.868;11.892;2023-11-19T04:06:59;5.00;99.90
5200;DHT22;2619;47.868;11.892;2023-11-19T04:09:26;5.00;99.90
5200;DHT22;2619;47.868;11.892;2023-11-19T04:11:51;4.90;99.90
5200;DHT22;2619;47.868;11.892;2023-11-19T04:14:17;4.90;99.90
5200;DHT22;2619;47.868;11.892;2023-11-19T04:16:44;4.90;99.90
5200;DHT22;2619;47.868;11.892;2023-11-19T04:19:11;4.90;99.90
5200;DHT22;2619;47.868;11.892;2023-11-19T04:21:36;4.90;99.90
5200;DHT22;2619;47.868;11.892;2023-11-19T04:24:02;4.90;99.90
5200;DHT22;2619;47.868;11.892;2023-11-19T04:26:28;4.90;99.90
5200;DHT22;2619;47.868;11.892;2023-11-19T04:28:53;4.90;99.90
5200;DHT22;2619;47.868;11.892;2023-11-19T04:31:19;4.90;99.90
5200;DHT22;2619;47.868;11.892;2023-11-19T04:33:45;4.90;99.90
5200;DHT22;2619;47.868;11.892;2023-11-19T04:36:10;4.90;99.90
5200;DHT22;2619;47.868;11.892;2023-11-19T04:38:37;4.90;99.90
5200;DHT22;2619;47.868;11.892;2023-11-19T04:41:04;4.90;99.90
5200;DHT22;2619;47.868;11.892;2023-11-19T04:43:31;5.00;99.90
5200;DHT22;2619;47.868;11.892;2023-11-19T04:45:56;5.00;99.90
5200;DHT22;2619;47.868;11.892;2023-11-19T04:48:23;5.10;99.90
5200;DHT22;2619;47.868;11.892;2023-11-19T04:50:48;5.10;99.90
5200;DHT22;2619;47.868;11.892;2023-11-19T04:53:16;5.10;99.90
5200;DHT22;2619;47.868;11.892;2023-11-19T04:55:42;5.10;99.90
5200;DHT22;2619;47.868;11.892;2023-11-19T04:58:08;5.20;99.90
5200;DHT22;2619;47.868;11.892;2023-11-19T05:00:34;5.20;99.90
5200;DHT22;2619;47.868;11.892;2023-11-19T05:03:00;5.20;99.90
5200;DHT22;2619;47.868;11.892;2023-11-19T05:05:25;5.20;99.90
5200;DHT22;2619;47.868;11.892;2023-11-19T05:07:51;5.20;99.90
5200;DHT22;2619;47.868;11.892;2023-11-19T05:10:16;5.20;99.90
5200;DHT22;2619;47.868;11.892;2023-11-19T05:12:42;5.30;99.90
5200;DHT22;2619;47.868;11.892;2023-11-19T05:15:08;5.30;99.90
5200;DHT22;2619;47.868;11.892;2023-11-19T05:17:33;5.30;99.90
5200;DHT22;2619;47.868;11.892;2023-11-19T05:19:59;5.40;99.90
5200;DHT22;2619;47.868;11.892;2023-11-19T05:22:24;5.50;99.90
5200;DHT22;2619;47.868;11.892;2023-11-19T05:24:51;6.20;99.90
5200;DHT22;2619;47.868;11.892;2023-11-19T05:27:17;6.80;99.90
5200;DHT22;2619;47.868;11.892;2023-11-19T05:29:43;7.60;99.90
5200;DHT22;2619;47.868;11.892;2023-11-19T05:32:09;7.80;99.90
5200;DHT22;2619;47.868;11.892;2023-11-19T05:34:35;8.00;99.90
5200;DHT22;2619;47.868;11.892;2023-11-19T05:37:01;8.20;99.90
5200;DHT22;2619;47.868;11.892;2023-11-19T05:39:28;8.40;99.90
5200;DHT22;2619;47.868;11.892;2023-11-19T05:41:53;8.60;99.90
5200;DHT22;2619;47.868;11.892;2023-11-19T05:44:19;8.70;99.90
5200;DHT22;2619;47.868;11.892;2023-11-19T05:46:45;8.80;99.90
5200;DHT22;2619;47.868;11.892;2023-11-19T05:49:11;8.90;99.90
5200;DHT22;2619;47.868;11.892;2023-11-19T05:51:40;9.00;99.90
5200;DHT22;2619;47.868;11.892;2023-11-19T05:54:08;9.00;99.90
5200;DHT22;2619;47.868;11.892;2023-11-19T05:56:34;9.10;99.90
5200;DHT22;2619;47.868;11.892;2023-11-19T05:59:00;9.20;99.90
5200;DHT22;2619;47.868;11.892;2023-11-19T06:01:26;9.30;99.90
5200;DHT22;2619;47.868;11.892;2023-11-19T06:03:52;9.30;99.90
5200;DHT22;2619;47.868;11.892;2023-11-19T06:06:18;9.30;99.90
5200;DHT22;2619;47.868;11.892;2023-11-19T06:08:44;9.40;99.90
5200;DHT22;2619;47.868;11.892;2023-11-19T06:11:10;9.40;99.90
5200;DHT22;2619;47.868;11.892;2023-11-19T06:13:44;9.40;99.90
5200;DHT22;2619;47.868;11.892;2023-11-19T06:16:10;9.40;99.90
5200;DHT22;2619;47.868;11.892;2023-11-19T06:18:38;9.40;99.90
5200;DHT22;2619;47.868;11.892;2023-11-19T06:21:04;9.40;99.90
5200;DHT22;2619;47.868;11.892;2023-11-19T06:23:30;9.50;99.90
5200;DHT22;2619;47.868;11.892;2023-11-19T06:25:55;9.50;99.90
5200;DHT22;2619;47.868;11.892;2023-11-19T06:28:21;9.60;99.90
5200;DHT22;2619;47.868;11.892;2023-11-19T06:30:46;9.60;99.90
5200;DHT22;2619;47.868;11.892;2023-11-19T06:33:15;9.70;99.90
5200;DHT22;2619;47.868;11.892;2023-11-19T06:35:40;9.70;99.90
5200;DHT22;2619;47.868;11.892;2023-11-19T06:38:06;9.70;99.90
5200;DHT22;2619;47.868;11.892;2023-11-19T06:40:35;9.70;99.90
5200;DHT22;2619;47.868;11.892;2023-11-19T06:43:00;9.70;99.90
5200;DHT22;2619;47.868;11.892;2023-11-19T06:45:28;9.80;99.90
5200;DHT22;2619;47.868;11.892;2023-11-19T06:47:53;9.80;99.90
5200;DHT22;2619;47.868;11.892;2023-11-19T06:50:19;9.80;99.90
5200;DHT22;2619;47.868;11.892;2023-11-19T06:52:45;9.80;99.90
5200;DHT22;2619;47.868;11.892;2023-11-19T06:55:11;9.90;99.90
5200;DHT22;2619;47.868;11.892;2023-11-19T06:57:37;9.90;99.90
5200;DHT22;2619;47.868;11.892;2023-11-19T07:00:03;9.90;99.90
5200;DHT22;2619;47.868;11.892;2023-11-19T07:02:31;9.90;99.90
5200;DHT22;2619;47.868;11.892;2023-11-19T07:04:56;9.90;99.90
5200;DHT22;2619;47.868;11.892;2023-11-19T07:07:22;9.90;99.90
5200;DHT22;2619;47.868;11.892;2023-11-19T07:09:48;10.00;99.90
5200;DHT22;2619;47.868;11.892;2023-11-19T07:12:13;10.00;99.90
5200;DHT22;2619;47.868;11.892;2023-11-19T07:14:40;10.00;99.90
5200;DHT22;2619;47.868;11.892;2023-11-19T07:17:07;10.10;99.90
5200;DHT22;2619;47.868;11.892;2023-11-19T07:19:34;10.10;99.90
5200;DHT22;2619;47.868;11.892;2023-11-19T07:22:01;10.10;99.90
5200;DHT22;2619;47.868;11.892;2023-11-19T07:24:27;10.10;99.90
5200;DHT22;2619;47.868;11.892;2023-11-19T07:26:54;10.20;99.90
5200;DHT22;2619;47.868;11.892;2023-11-19T07:29:20;10.20;99.90
5200;DHT22;2619;47.868;11.892;2023-11-19T07:31:48;10.20;99.90
5200;DHT22;2619;47.868;11.892;2023-11-19T07:34:14;10.20;99.90
5200;DHT22;2619;47.868;11.892;2023-11-19T07:36:39;10.20;99.90
5200;DHT22;2619;47.868;11.892;2023-11-19T07:39:05;10.20;99.90
5200;DHT22;2619;47.868;11.892;2023-11-19T07:41:31;10.20;99.90
5200;DHT22;2619;47.868;11.892;2023-11-19T07:43:57;10.20;99.90
5200;DHT22;2619;47.868;11.892;2023-11-19T07:46:22;10.30;99.90
5200;DHT22;2619;47.868;11.892;2023-11-19T07:48:48;10.30;99.90
5200;DHT22;2619;47.868;11.892;2023-11-19T07:51:14;10.30;99.90
5200;DHT22;2619;47.868;11.892;2023-11-19T07:53:40;10.30;99.90
5200;DHT22;2619;47.868;11.892;2023-11-19T07:56:07;10.40;99.90
5200;DHT22;2619;47.868;11.892;2023-11-19T07:58:33;10.50;99.90
5200;DHT22;2619;47.868;11.892;2023-11-19T08:00:59;10.50;99.90
5200;DHT22;2619;47.868;11.892;2023-11-19T08:03:24;10.50;99.90
5200;DHT22;2619;47.868;11.892;2023-11-19T08:05:50;10.60;99.90
5200;DHT22;2619;47.868;11.892;2023-11-19T08:08:16;10.60;99.90
5200;DHT22;2619;47.868;11.892;2023-11-19T08:10:42;10.60;99.90
5200;DHT22;2619;47.868;11.892;2023-11-19T08:13:10;10.70;99.90
5200;DHT22;2619;47.868;11.892;2023-11-19T08:15:35;10.70;99.90
5200;DHT22;2619;47.868;11.892;2023-11-19T08:18:01;10.80;99.90
5200;DHT22;2619;47.868;11.892;2023-11-19T08:20:27;10.90;99.90
5200;DHT22;2619;47.868;11.892;2023-11-19T08:22:52;10.90;99.90
5200;DHT22;2619;47.868;11.892;2023-11-19T08:25:18;10.90;99.90
5200;DHT22;2619;47.868;11.892;2023-11-19T08:27:44;10.90;99.90
5200;DHT22;2619;47.868;11.892;2023-11-19T08:30:10;10.90;99.90
5200;DHT22;2619;47.868;11.892;2023-11-19T08:32:36;10.90;99.90
5200;DHT22;2619;47.868;11.892;2023-11-19T08:35:01;11.00;99.90
5200;DHT22;2619;47.868;11.892;2023-11-19T08:37:27;11.00;99.90
5200;DHT22;2619;47.868;11.892;2023-11-19T08:39:52;11.00;99.90
5200;DHT22;2619;47.868;11.892;2023-11-19T08:42:18;11.10;99.90
5200;DHT22;2619;47.868;11.892;2023-11-19T08:44:44;11.20;99.90
5200;DHT22;2619;47.868;11.892;2023-11-19T08:47:15;11.30;99.90
5200;DHT22;2619;47.868;11.892;2023-11-19T08:49:43;11.40;99.90
5200;DHT22;2619;47.868;11.892;2023-11-19T08:52:09;11.50;99.90
5200;DHT22;2619;47.868;11.892;2023-11-19T08:54:36;11.50;99.90
5200;DHT22;2619;47.868;11.892;2023-11-19T08:57:02;11.60;99.90
5200;DHT22;2619;47.868;11.892;2023-11-19T08:59:29;11.60;99.90
5200;DHT22;2619;47.868;11.892;2023-11-19T09:01:54;11.60;99.90
5200;DHT22;2619;47.868;11.892;2023-11-19T09:04:20;11.70;99.90
5200;DHT22;2619;47.868;11.892;2023-11-19T09:06:48;11.80;99.90
5200;DHT22;2619;47.868;11.892;2023-11-19T09:09:14;11.90;99.90
5200;DHT22;2619;47.868;11.892;2023-11-19T09:11:39;12.00;99.90
5200;DHT22;2619;47.868;11.892;2023-11-19T09:14:05;12.10;99.90
5200;DHT22;2619;47.868;11.892;2023-11-19T09:16:31;12.10;99.90
5200;DHT22;2619;47.868;11.892;2023-11-19T09:18:57;12.30;99.90
5200;DHT22;2619;47.868;11.892;2023-11-19T09:21:25;12.40;99.90
5200;DHT22;2619;47.868;11.892;2023-11-19T09:23:50;12.40;99.90
5200;DHT22;2619;47.868;11.892;2023-11-19T09:26:16;12.60;99.90
5200;DHT22;2619;47.868;11.892;2023-11-19T09:28:41;12.50;99.90
5200;DHT22;2619;47.868;11.892;2023-11-19T09:31:17;12.50;99.90
5200;DHT22;2619;47.868;11.892;2023-11-19T09:33:43;12.40;99.90
5200;DHT22;2619;47.868;11.892;2023-11-19T09:36:10;12.50;99.90
5200;DHT22;2619;47.868;11.892;2023-11-19T09:38:43;12.40;99.90
5200;DHT22;2619;47.868;11.892;2023-11-19T09:41:10;12.60;99.90
5200;DHT22;2619;47.868;11.892;2023-11-19T09:43:39;12.70;99.90
5200;DHT22;2619;47.868;11.892;2023-11-19T09:46:05;12.70;99.90
5200;DHT22;2619;47.868;11.892;2023-11-19T09:48:35;12.70;99.90
5200;DHT22;2619;47.868;11.892;2023-11-19T09:51:02;12.60;99.90
5200;DHT22;2619;47.868;11.892;2023-11-19T09:53:30;12.30;99.90
5200;DHT22;2619;47.868;11.892;2023-11-19T09:55:56;12.40;99.90
5200;DHT22;2619;47.868;11.892;2023-11-19T09:58:22;12.50;99.90
5200;DHT22;2619;47.868;11.892;2023-11-19T10:00:49;12.60;99.90
5200;DHT22;2619;47.868;11.892;2023-11-19T10:03:15;12.70;99.90
5200;DHT22;2619;47.868;11.892;2023-11-19T10:05:41;12.60;99.90
5200;DHT22;2619;47.868;11.892;2023-11-19T10:08:07;12.60;99.90
5200;DHT22;2619;47.868;11.892;2023-11-19T10:10:33;12.70;99.90
5200;DHT22;2619;47.868;11.892;2023-11-19T10:12:59;12.80;99.90
5200;DHT22;2619;47.868;11.892;2023-11-19T10:15:26;12.80;99.90
5200;DHT22;2619;47.868;11.892;2023-11-19T10:17:56;12.80;99.90
5200;DHT22;2619;47.868;11.892;2023-11-19T10:20:22;12.90;99.90
5200;DHT22;2619;47.868;11.892;2023-11-19T10:22:53;12.90;99.90
5200;DHT22;2619;47.868;11.892;2023-11-19T10:25:27;12.70;99.90
5200;DHT22;2619;47.868;11.892;2023-11-19T10:27:54;12.70;99.90
5200;DHT22;2619;47.868;11.892;2023-11-19T10:30:24;12.70;99.90
5200;DHT22;2619;47.868;11.892;2023-11-19T10:33:13;12.70;99.90
5200;DHT22;2619;47.868;11.892;2023-11-19T10:35:57;12.70;99.90
5200;DHT22;2619;47.868;11.892;2023-11-19T10:38:23;12.60;99.90
5200;DHT22;2619;47.868;11.892;2023-11-19T10:40:50;12.50;99.90
5200;DHT22;2619;47.868;11.892;2023-11-19T10:43:22;12.40;99.90
5200;DHT22;2619;47.868;11.892;2023-11-19T10:45:48;12.30;99.90
5200;DHT22;2619;47.868;11.892;2023-11-19T10:48:14;12.30;99.90
5200;DHT22;2619;47.868;11.892;2023-11-19T10:50:41;12.30;99.90
5200;DHT22;2619;47.868;11.892;2023-11-19T10:53:09;12.40;99.90
5200;DHT22;2619;47.868;11.892;2023-11-19T10:55:36;12.50;99.90
5200;DHT22;2619;47.868;11.892;2023-11-19T10:58:04;12.60;99.90
5200;DHT22;2619;47.868;11.892;2023-11-19T11:00:38;12.70;99.90
5200;DHT22;2619;47.868;11.892;2023-11-19T11:03:10;12.70;99.90
5200;DHT22;2619;47.868;11.892;2023-11-19T11:05:37;12.70;99.90
5200;DHT22;2619;47.868;11.892;2023-11-19T11:08:06;12.70;99.90
5200;DHT22;2619;47.868;11.892;2023-11-19T11:10:39;12.70;99.90
5200;DHT22;2619;47.868;11.892;2023-11-19T11:13:05;12.60;99.90
5200;DHT22;2619;47.868;11.892;2023-11-19T11:15:31;12.50;99.90
5200;DHT22;2619;47.868;11.892;2023-11-19T11:18:01;12.40;99.90
5200;DHT22;2619;47.868;11.892;2023-11-19T11:20:33;12.40;99.90
5200;DHT22;2619;47.868;11.892;2023-11-19T11:24:01;12.50;99.90
5200;DHT22;2619;47.868;11.892;2023-11-19T11:34:52;12.90;99.90
5200;DHT22;2619;47.868;11.892;2023-11-19T11:37:37;13.00;99.90
5200;DHT22;2619;47.868;11.892;2023-11-19T11:40:04;13.10;99.90
5200;DHT22;2619;47.868;11.892;2023-11-19T11:42:36;13.20;99.90
5200;DHT22;2619;47.868;11.892;2023-11-19T11:45:09;13.20;99.90
5200;DHT22;2619;47.868;11.892;2023-11-19T11:50:14;13.40;99.90
5200;DHT22;2619;47.868;11.892;2023-11-19T11:58:21;14.00;99.90
5200;DHT22;2619;47.868;11.892;2023-11-19T12:00:51;14.00;99.90
5200;DHT22;2619;47.868;11.892;2023-11-19T12:03:20;14.10;99.90
5200;DHT22;2619;47.868;11.892;2023-11-19T12:05:47;14.10;99.90
5200;DHT22;2619;47.868;11.892;2023-11-19T12:08:14;14.20;99.90
5200;DHT22;2619;47.868;11.892;2023-11-19T12:10:49;14.20;99.90
5200;DHT22;2619;47.868;11.892;2023-11-19T12:13:15;14.40;99.90
5200;DHT22;2619;47.868;11.892;2023-11-19T12:18:23;14.20;99.90
5200;DHT22;2619;47.868;11.892;2023-11-19T12:20:50;14.20;99.90
5200;DHT22;2619;47.868;11.892;2023-11-19T12:23:15;14.10;99.90
5200;DHT22;2619;47.868;11.892;2023-11-19T12:25:41;14.10;99.90
5200;DHT22;2619;47.868;11.892;2023-11-19T12:28:12;14.10;99.90
5200;DHT22;2619;47.868;11.892;2023-11-19T12:30:38;14.40;99.90
5200;DHT22;2619;47.868;11.892;2023-11-19T12:33:13;14.50;99.90
5200;DHT22;2619;47.868;11.892;2023-11-19T12:35:40;14.60;99.90
5200;DHT22;2619;47.868;11.892;2023-11-19T12:38:06;14.80;99.90
5200;DHT22;2619;47.868;11.892;2023-11-19T12:40:32;15.20;99.90
5200;DHT22;2619;47.868;11.892;2023-11-19T12:42:57;15.10;99.90
5200;DHT22;2619;47.868;11.892;2023-11-19T12:45:24;14.90;99.90
5200;DHT22;2619;47.868;11.892;2023-11-19T12:48:04;14.80;99.90
5200;DHT22;2619;47.868;11.892;2023-11-19T12:50:50;14.90;99.90
5200;DHT22;2619;47.868;11.892;2023-11-19T12:53:16;14.60;99.90
5200;DHT22;2619;47.868;11.892;2023-11-19T12:55:41;14.60;99.90
5200;DHT22;2619;47.868;11.892;2023-11-19T12:58:07;14.40;99.90
5200;DHT22;2619;47.868;11.892;2023-11-19T13:00:32;14.40;99.90
5200;DHT22;2619;47.868;11.892;2023-11-19T13:02:58;14.40;99.90
5200;DHT22;2619;47.868;11.892;2023-11-19T13:05:32;14.40;99.90
5200;DHT22;2619;47.868;11.892;2023-11-19T13:08:02;14.40;99.90
5200;DHT22;2619;47.868;11.892;2023-11-19T13:10:29;14.30;99.90
5200;DHT22;2619;47.868;11.892;2023-11-19T13:13:08;14.10;99.90
5200;DHT22;2619;47.868;11.892;2023-11-19T13:15:34;14.00;99.90
5200;DHT22;2619;47.868;11.892;2023-11-19T13:18:00;14.10;99.90
5200;DHT22;2619;47.868;11.892;2023-11-19T13:20:26;14.00;99.90
5200;DHT22;2619;47.868;11.892;2023-11-19T13:23:00;14.00;99.90
5200;DHT22;2619;47.868;11.892;2023-11-19T13:25:27;14.10;99.90
5200;DHT22;2619;47.868;11.892;2023-11-19T13:27:53;14.00;99.90
5200;DHT22;2619;47.868;11.892;2023-11-19T13:30:20;14.10;99.90
5200;DHT22;2619;47.868;11.892;2023-11-19T13:32:45;13.90;99.90
5200;DHT22;2619;47.868;11.892;2023-11-19T13:35:12;13.90;99.90
5200;DHT22;2619;47.868;11.892;2023-11-19T13:37:38;13.80;99.90
5200;DHT22;2619;47.868;11.892;2023-11-19T13:40:06;13.80;99.90
5200;DHT22;2619;47.868;11.892;2023-11-19T13:42:32;13.70;99.90
5200;DHT22;2619;47.868;11.892;2023-11-19T13:44:57;13.60;99.90
5200;DHT22;2619;47.868;11.892;2023-11-19T13:47:23;13.50;99.90
5200;DHT22;2619;47.868;11.892;2023-11-19T13:49:49;13.60;99.90
5200;DHT22;2619;47.868;11.892;2023-11-19T13:52:15;13.50;99.90
5200;DHT22;2619;47.868;11.892;2023-11-19T13:54:40;13.50;99.90
5200;DHT22;2619;47.868;11.892;2023-11-19T13:57:06;13.40;99.90
5200;DHT22;2619;47.868;11.892;2023-11-19T13:59:32;13.30;99.90
5200;DHT22;2619;47.868;11.892;2023-11-19T14:01:58;13.30;99.90
5200;DHT22;2619;47.868;11.892;2023-11-19T14:04:23;13.20;99.90
5200;DHT22;2619;47.868;11.892;2023-11-19T14:06:51;13.20;99.90
5200;DHT22;2619;47.868;11.892;2023-11-19T14:09:17;13.30;99.90
5200;DHT22;2619;47.868;11.892;2023-11-19T14:11:43;13.20;99.90
5200;DHT22;2619;47.868;11.892;2023-11-19T14:14:09;13.30;99.90
5200;DHT22;2619;47.868;11.892;2023-11-19T14:16:34;13.20;99.90
5200;DHT22;2619;47.868;11.892;2023-11-19T14:19:00;13.20;99.90
5200;DHT22;2619;47.868;11.892;2023-11-19T14:21:26;13.20;99.90
5200;DHT22;2619;47.868;11.892;2023-11-19T14:23:52;13.10;99.90
5200;DHT22;2619;47.868;11.892;2023-11-19T14:26:18;13.20;99.90
5200;DHT22;2619;47.868;11.892;2023-11-19T14:28:43;13.00;99.90
5200;DHT22;2619;47.868;11.892;2023-11-19T14:31:09;12.90;99.90
5200;DHT22;2619;47.868;11.892;2023-11-19T14:33:35;12.90;99.90
5200;DHT22;2619;47.868;11.892;2023-11-19T14:36:01;12.80;99.90
5200;DHT22;2619;47.868;11.892;2023-11-19T14:38:27;12.80;99.90
5200;DHT22;2619;47.868;11.892;2023-11-19T14:40:53;12.60;99.90
5200;DHT22;2619;47.868;11.892;2023-11-19T14:43:18;12.50;99.90
5200;DHT22;2619;47.868;11.892;2023-11-19T14:45:44;12.50;99.90
5200;DHT22;2619;47.868;11.892;2023-11-19T14:48:09;12.50;99.90
5200;DHT22;2619;47.868;11.892;2023-11-19T14:50:35;12.50;99.90
5200;DHT22;2619;47.868;11.892;2023-11-19T14:53:01;12.50;99.90
5200;DHT22;2619;47.868;11.892;2023-11-19T14:55:27;12.40;99.90
5200;DHT22;2619;47.868;11.892;2023-11-19T14:57:53;12.40;99.90
5200;DHT22;2619;47.868;11.892;2023-11-19T15:00:19;12.30;99.90
5200;DHT22;2619;47.868;11.892;2023-11-19T15:02:45;12.20;99.90
5200;DHT22;2619;47.868;11.892;2023-11-19T15:05:10;12.10;99.90
5200;DHT22;2619;47.868;11.892;2023-11-19T15:07:39;12.20;99.90
5200;DHT22;2619;47.868;11.892;2023-11-19T15:10:08;12.10;99.90
5200;DHT22;2619;47.868;11.892;2023-11-19T15:12:39;12.00;99.90
5200;DHT22;2619;47.868;11.892;2023-11-19T15:15:09;12.10;99.90
5200;DHT22;2619;47.868;11.892;2023-11-19T15:17:36;12.00;99.90
5200;DHT22;2619;47.868;11.892;2023-11-19T15:20:03;11.90;99.90
5200;DHT22;2619;47.868;11.892;2023-11-19T15:22:29;11.80;99.90
5200;DHT22;2619;47.868;11.892;2023-11-19T15:24:54;11.80;99.90
5200;DHT22;2619;47.868;11.892;2023-11-19T15:27:20;11.70;99.90
5200;DHT22;2619;47.868;11.892;2023-11-19T15:29:46;11.60;99.90
5200;DHT22;2619;47.868;11.892;2023-11-19T15:32:11;11.60;99.90
5200;DHT22;2619;47.868;11.892;2023-11-19T15:34:37;11.50;99.90
5200;DHT22;2619;47.868;11.892;2023-11-19T15:37:03;11.50;99.90
5200;DHT22;2619;47.868;11.892;2023-11-19T15:39:29;11.50;99.90
5200;DHT22;2619;47.868;11.892;2023-11-19T15:41:55;11.50;99.90
5200;DHT22;2619;47.868;11.892;2023-11-19T15:44:23;11.40;99.90
5200;DHT22;2619;47.868;11.892;2023-11-19T15:46:49;11.50;99.90
5200;DHT22;2619;47.868;11.892;2023-11-19T15:49:15;11.40;99.90
5200;DHT22;2619;47.868;11.892;2023-11-19T15:51:41;11.40;99.90
5200;DHT22;2619;47.868;11.892;2023-11-19T15:54:07;11.30;99.90
5200;DHT22;2619;47.868;11.892;2023-11-19T15:56:33;11.30;99.90
5200;DHT22;2619;47.868;11.892;2023-11-19T15:58:59;11.40;99.90
5200;DHT22;2619;47.868;11.892;2023-11-19T16:01:24;11.40;99.90
5200;DHT22;2619;47.868;11.892;2023-11-19T16:03:50;11.40;99.90
5200;DHT22;2619;47.868;11.892;2023-11-19T16:06:17;11.40;99.90
5200;DHT22;2619;47.868;11.892;2023-11-19T16:08:43;11.40;99.90
5200;DHT22;2619;47.868;11.892;2023-11-19T16:11:09;11.50;99.90